Time;durP1;ratioP1;P1;durP2;ratioP2;P2;SDS_P1;SDS_P2;PMS_P1;PMS_P2;Temp;Humidity;BMP_temperature;BMP_pressure;BME280_temperature;BME280_humidity;BME280_pressure;Samples;Min_cycle;Max_cycle;Signal;HPM_P1;HPM_P2
2024/03/31 00:05:45;;;;;;;;;;;9.10;99.90;;;;;;6738923;88;20562;-79
2024/03/31 00:15:46;;;;;;;;;;;9.00;99.90;;;;;;6738342;88;20249;-79
2024/03/31 00:25:54;;;;;;;;;;;9.00;99.90;;;;;;6738773;88;20062;-78
2024/03/31 00:35:55;;;;;;;;;;;9.00;99.90;;;;;;6724556;88;20077;-78
2024/03/31 00:45:56;;;;;;;;;;;9.10;99.90;;;;;;6737274;88;20042;-78
2024/03/31 00:55:56;;;;;;;;;;;9.20;99.90;;;;;;6749365;88;20042;-78
2024/03/31 01:06:01;;;;;;;;;;;9.00;99.90;;;;;;6746771;88;20140;-78
2024/03/31 01:16:02;;;;;;;;;;;8.80;99.90;;;;;;6737045;88;20481;-78
2024/03/31 01:26:02;;;;;;;;;;;8.60;99.90;;;;;;6737419;88;20129;-78
2024/03/31 01:36:03;;;;;;;;;;;8.50;99.90;;;;;;6736903;88;20074;-77
2024/03/31 01:46:04;;;;;;;;;;;8.50;99.90;;;;;;6743374;77;20101;-77
2024/03/31 01:56:04;;;;;;;;;;;8.60;99.90;;;;;;6737312;88;20399;-77
2024/03/31 02:06:08;;;;;;;;;;;8.80;99.90;;;;;;6737225;88;20053;-77
2024/03/31 02:16:09;;;;;;;;;;;9.00;99.90;;;;;;6737865;88;20054;-78
2024/03/31 02:26:09;;;;;;;;;;;9.30;99.90;;;;;;6738198;88;20163;-78
2024/03/31 02:36:10;;;;;;;;;;;9.40;99.90;;;;;;6754875;88;20505;-78
2024/03/31 02:46:10;;;;;;;;;;;9.40;99.90;;;;;;6739191;88;20065;-78
2024/03/31 02:56:11;;;;;;;;;;;9.20;99.90;;;;;;6739249;88;20604;-80
2024/03/31 03:06:11;;;;;;;;;;;9.10;99.90;;;;;;6739412;88;20197;-77
2024/03/31 03:16:12;;;;;;;;;;;9.00;99.90;;;;;;6740710;88;20166;-78
2024/03/31 03:26:12;;;;;;;;;;;9.10;99.90;;;;;;6740350;88;20565;-77
2024/03/31 03:36:12;;;;;;;;;;;9.10;99.90;;;;;;6740788;88;20082;-77
2024/03/31 03:46:13;;;;;;;;;;;8.90;99.90;;;;;;6740187;88;20450;-77
2024/03/31 03:56:13;;;;;;;;;;;9.00;99.90;;;;;;6738379;88;20066;-77
2024/03/31 04:06:14;;;;;;;;;;;9.00;99.90;;;;;;6740412;88;20509;-77
2024/03/31 04:16:14;;;;;;;;;;;9.10;99.90;;;;;;6739632;88;20141;-77
2024/03/31 04:26:15;;;;;;;;;;;9.10;99.90;;;;;;6739403;88;20070;-77
2024/03/31 04:36:15;;;;;;;;;;;9.20;99.90;;;;;;6743529;88;20595;-77
2024/03/31 04:46:16;;;;;;;;;;;9.30;99.90;;;;;;6739598;88;20088;-77
2024/03/31 04:56:16;;;;;;;;;;;9.30;99.90;;;;;;6735747;88;20049;-77
2024/03/31 05:06:17;;;;;;;;;;;9.50;99.90;;;;;;6738366;88;20689;-77
2024/03/31 05:16:17;;;;;;;;;;;9.70;99.90;;;;;;6737137;88;20070;-77
2024/03/31 05:26:18;;;;;;;;;;;9.60;99.90;;;;;;6739389;88;20066;-77
2024/03/31 05:36:18;;;;;;;;;;;9.50;99.90;;;;;;6734667;88;20136;-77
2024/03/31 05:46:20;;;;;;;;;;;9.50;99.90;;;;;;6738620;88;20541;-78
2024/03/31 05:56:21;;;;;;;;;;;9.50;99.90;;;;;;6734287;88;20102;-79
2024/03/31 06:06:21;;;;;;;;;;;9.40;99.90;;;;;;6736947;88;20571;-78
2024/03/31 06:16:21;;;;;;;;;;;9.40;99.90;;;;;;6739563;88;20097;-78
2024/03/31 06:26:22;;;;;;;;;;;9.60;99.90;;;;;;6739356;88;20078;-77
2024/03/31 06:36:22;;;;;;;;;;;9.70;99.90;;;;;;6735202;88;20059;-76
2024/03/31 06:46:23;;;;;;;;;;;9.80;99.90;;;;;;6742732;88;20137;-78
2024/03/31 06:56:23;;;;;;;;;;;10.00;99.90;;;;;;6744408;88;20054;-78
2024/03/31 07:06:24;;;;;;;;;;;10.20;99.90;;;;;;6742517;88;20211;-78
2024/03/31 07:16:24;;;;;;;;;;;10.60;99.90;;;;;;6744371;88;20058;-76
2024/03/31 07:26:26;;;;;;;;;;;11.00;99.90;;;;;;6743456;88;20053;-77
2024/03/31 07:36:27;;;;;;;;;;;11.20;99.90;;;;;;6741955;88;20549;-77
2024/03/31 07:56:31;;;;;;;;;;;11.80;99.90;;;;;;6783411;88;20112;-79
2024/03/31 08:06:31;;;;;;;;;;;12.50;99.90;;;;;;6772181;88;20105;-79
2024/03/31 08:16:31;;;;;;;;;;;13.10;99.90;;;;;;6771036;88;20085;-78
2024/03/31 08:26:35;;;;;;;;;;;13.70;99.90;;;;;;6766655;87;20099;-80
2024/03/31 08:36:35;;;;;;;;;;;13.90;99.90;;;;;;6769558;88;20109;-79
2024/03/31 08:46:36;;;;;;;;;;;14.70;99.90;;;;;;6764905;87;20525;-79
2024/03/31 08:56:36;;;;;;;;;;;15.60;99.90;;;;;;6764782;88;20064;-80
2024/03/31 09:06:37;;;;;;;;;;;16.30;99.90;;;;;;6771325;88;20081;-80
2024/03/31 09:16:37;;;;;;;;;;;16.40;99.90;;;;;;6768894;88;20073;-80
2024/03/31 09:26:40;;;;;;;;;;;17.00;99.90;;;;;;6768391;87;20058;-80
2024/03/31 09:36:41;;;;;;;;;;;16.90;99.90;;;;;;6767431;88;20098;-80
2024/03/31 09:46:41;;;;;;;;;;;17.80;99.90;;;;;;6769672;88;20081;-80
2024/03/31 09:56:47;;;;;;;;;;;19.00;99.90;;;;;;6774060;88;20088;-79
2024/03/31 10:06:48;;;;;;;;;;;18.40;99.90;;;;;;6768410;88;20049;-79
2024/03/31 10:16:50;;;;;;;;;;;18.10;99.90;;;;;;6768639;88;20654;-80
2024/03/31 10:26:52;;;;;;;;;;;19.40;99.90;;;;;;6767119;87;20077;-79
2024/03/31 10:36:54;;;;;;;;;;;19.10;99.90;;;;;;6763860;88;20644;-79
2024/03/31 10:46:54;;;;;;;;;;;19.30;99.90;;;;;;6768081;88;20103;-78
2024/03/31 10:56:59;;;;;;;;;;;19.80;99.90;;;;;;6766976;87;20056;-79
2024/03/31 11:07:00;;;;;;;;;;;19.80;99.90;;;;;;6771781;88;20040;-79
2024/03/31 11:17:01;;;;;;;;;;;19.00;99.90;;;;;;6773943;87;20093;-79
2024/03/31 11:27:02;;;;;;;;;;;19.40;99.90;;;;;;6769843;88;20401;-81
2024/03/31 11:37:03;;;;;;;;;;;18.90;99.90;;;;;;6775475;88;20135;-80
2024/03/31 11:47:03;;;;;;;;;;;17.90;99.90;;;;;;6767553;88;20081;-80
2024/03/31 11:57:04;;;;;;;;;;;18.00;99.90;;;;;;6768754;87;20557;-80
2024/03/31 12:07:04;;;;;;;;;;;18.50;99.90;;;;;;6767529;88;20078;-80
2024/03/31 12:17:05;;;;;;;;;;;18.20;99.90;;;;;;6774031;88;20140;-81
2024/03/31 12:27:06;;;;;;;;;;;17.90;99.90;;;;;;6769098;87;20504;-80
2024/03/31 12:37:07;;;;;;;;;;;17.80;99.90;;;;;;6768982;88;20095;-79
2024/03/31 12:47:07;;;;;;;;;;;18.10;99.90;;;;;;6767749;88;20050;-79
2024/03/31 12:57:08;;;;;;;;;;;18.00;99.90;;;;;;6768082;88;20080;-80
2024/03/31 13:07:09;;;;;;;;;;;18.60;99.90;;;;;;6764158;88;20078;-80
2024/03/31 13:17:09;;;;;;;;;;;19.20;99.90;;;;;;6765047;88;20223;-80
2024/03/31 13:27:09;;;;;;;;;;;19.80;99.90;;;;;;6769754;88;20561;-81
2024/03/31 13:37:10;;;;;;;;;;;21.00;99.90;;;;;;6770034;88;20065;-81
2024/03/31 13:47:10;;;;;;;;;;;21.50;99.90;;;;;;6768486;88;20225;-79
2024/03/31 13:57:11;;;;;;;;;;;20.30;99.90;;;;;;6762626;88;20068;-78
2024/03/31 14:07:11;;;;;;;;;;;20.50;99.90;;;;;;6760746;88;20969;-78
2024/03/31 14:17:12;;;;;;;;;;;19.70;99.90;;;;;;6760721;88;20089;-78
2024/03/31 14:27:12;;;;;;;;;;;19.50;99.90;;;;;;6760360;88;20068;-77
2024/03/31 14:37:13;;;;;;;;;;;20.00;99.90;;;;;;6759557;88;20625;-79
2024/03/31 14:47:13;;;;;;;;;;;20.70;99.90;;;;;;6754132;88;20147;-76
2024/03/31 14:57:14;;;;;;;;;;;20.10;99.90;;;;;;6757116;88;20578;-78
2024/03/31 15:07:14;;;;;;;;;;;20.30;99.90;;;;;;6761502;87;20066;-77
2024/03/31 15:17:15;;;;;;;;;;;20.10;99.90;;;;;;6764680;87;20533;-76
2024/03/31 15:27:15;;;;;;;;;;;19.50;99.90;;;;;;6761214;87;20142;-78
2024/03/31 15:37:16;;;;;;;;;;;19.00;99.90;;;;;;6760714;88;20176;-76
2024/03/31 15:47:16;;;;;;;;;;;18.70;99.90;;;;;;6763292;88;20054;-77
2024/03/31 15:57:17;;;;;;;;;;;18.30;99.90;;;;;;6764750;87;20102;-76
2024/03/31 16:07:17;;;;;;;;;;;16.60;99.90;;;;;;6762615;87;20121;-78
2024/03/31 16:17:18;;;;;;;;;;;13.30;99.90;;;;;;6764833;88;20070;-78
2024/03/31 16:27:18;;;;;;;;;;;12.40;99.90;;;;;;6762843;87;20053;-78
2024/03/31 16:37:19;;;;;;;;;;;12.30;99.90;;;;;;6765503;88;20057;-79
2024/03/31 16:47:20;;;;;;;;;;;12.30;99.90;;;;;;6763724;88;20177;-77
2024/03/31 16:57:21;;;;;;;;;;;12.50;99.90;;;;;;6760569;88;20128;-78
2024/03/31 17:07:21;;;;;;;;;;;12.90;99.90;;;;;;6761563;88;20110;-78
2024/03/31 17:17:22;;;;;;;;;;;13.10;99.90;;;;;;6761099;88;20107;-79
2024/03/31 17:27:22;;;;;;;;;;;13.10;99.90;;;;;;6756588;88;20630;-79
2024/03/31 17:37:23;;;;;;;;;;;13.00;99.90;;;;;;6759876;88;20089;-79
2024/03/31 17:47:23;;;;;;;;;;;13.00;99.90;;;;;;6765529;88;20530;-79
2024/03/31 17:57:24;;;;;;;;;;;12.90;99.90;;;;;;6767598;88;20096;-78
2024/03/31 18:07:24;;;;;;;;;;;12.70;99.90;;;;;;6759289;88;20070;-79
2024/03/31 18:17:24;;;;;;;;;;;12.60;99.90;;;;;;6759101;87;20496;-79
2024/03/31 18:27:25;;;;;;;;;;;12.70;99.90;;;;;;6758596;88;20053;-79
2024/03/31 18:37:25;;;;;;;;;;;12.50;99.90;;;;;;6758632;88;20665;-78
2024/03/31 18:47:26;;;;;;;;;;;12.30;99.90;;;;;;6758560;87;20098;-78
2024/03/31 18:57:32;;;;;;;;;;;12.20;99.90;;;;;;6760416;88;20059;-78
2024/03/31 19:07:33;;;;;;;;;;;12.20;99.90;;;;;;6759299;88;20079;-79
2024/03/31 19:17:37;;;;;;;;;;;12.60;99.90;;;;;;6763192;88;20119;-81
2024/03/31 19:27:37;;;;;;;;;;;12.80;99.90;;;;;;6758573;88;20193;-78
2024/03/31 19:37:38;;;;;;;;;;;13.20;99.90;;;;;;6757234;88;20092;-79
2024/03/31 19:47:38;;;;;;;;;;;13.50;99.90;;;;;;6761611;88;20171;-80
2024/03/31 19:57:40;;;;;;;;;;;13.40;99.90;;;;;;6764938;88;20049;-79
2024/03/31 20:07:42;;;;;;;;;;;13.20;99.90;;;;;;6764870;88;20084;-79
2024/03/31 20:17:42;;;;;;;;;;;13.10;99.90;;;;;;6756809;88;20081;-78
2024/03/31 20:27:42;;;;;;;;;;;12.90;99.90;;;;;;6759936;88;20111;-78
2024/03/31 20:37:43;;;;;;;;;;;13.10;99.90;;;;;;6760691;88;20546;-78
2024/03/31 20:47:43;;;;;;;;;;;13.00;99.90;;;;;;6758636;88;20085;-79
2024/03/31 20:57:44;;;;;;;;;;;12.70;99.90;;;;;;6761421;88;20134;-78
2024/03/31 21:07:45;;;;;;;;;;;12.70;99.90;;;;;;6768374;88;20153;-79
2024/03/31 21:17:45;;;;;;;;;;;12.50;99.90;;;;;;6764853;88;20054;-78
2024/03/31 21:27:46;;;;;;;;;;;12.40;99.90;;;;;;6770916;87;20516;-78
2024/03/31 21:37:47;;;;;;;;;;;12.30;99.90;;;;;;6755462;88;20165;-79
2024/03/31 21:47:47;;;;;;;;;;;12.20;99.90;;;;;;6754859;88;20630;-79
2024/03/31 21:57:48;;;;;;;;;;;11.90;99.90;;;;;;6758180;87;20128;-79
2024/03/31 22:07:48;;;;;;;;;;;11.80;99.90;;;;;;6757786;88;20074;-79
2024/03/31 22:17:49;;;;;;;;;;;11.80;99.90;;;;;;6761429;87;20798;-80
2024/03/31 22:27:49;;;;;;;;;;;11.50;99.90;;;;;;6764816;88;20066;-79
2024/03/31 22:37:49;;;;;;;;;;;11.70;99.90;;;;;;6760976;88;20053;-81
2024/03/31 22:47:50;;;;;;;;;;;11.90;99.90;;;;;;6765781;88;20524;-79
2024/03/31 22:57:51;;;;;;;;;;;11.90;99.90;;;;;;6758920;88;20046;-79
2024/03/31 23:07:51;;;;;;;;;;;11.90;99.90;;;;;;6758697;88;20077;-78
2024/03/31 23:17:51;;;;;;;;;;;11.80;99.90;;;;;;6753511;88;20071;-78
2024/03/31 23:27:52;;;;;;;;;;;11.80;99.90;;;;;;6757193;88;20199;-78
2024/03/31 23:37:52;;;;;;;;;;;11.80;99.90;;;;;;6756989;88;20074;-79
2024/03/31 23:48:00;;;;;;;;;;;11.60;99.90;;;;;;6756828;88;20097;-79
2024/03/31 23:58:01;;;;;;;;;;;11.70;99.90;;;;;;6756862;88;20067;-78
